< Typhoon 199011 1990 Season Typhoon 199013 >
Typhoon 199012 (YANCY)
General InformationTrack Information on Google MapsDetailed Wind InformationList of All Images || NewsDisaster Info.ResourceGoogle EarthGE AnimationAtom FeedGeoJSON
Detalied Best Track (Time Zone = UTC)
Year Month Day Hour Lat. Long. Pressure (hPa) Wind (kt) Class Image Chart
1990 8 11 00 9.0 155.0 1006 0 2 Image Chart
1990 8 11 06 9.5 154.0 1004 0 2 Image Chart
1990 8 11 12 10.0 152.5 1006 0 2 Image Chart
1990 8 11 18 10.5 151.5 1002 0 2 Image Chart
1990 8 12 00 11.5 150.5 1002 0 2 Image Chart
1990 8 12 06 12.5 149.5 1002 0 2 Image Chart
1990 8 12 12 13.5 148.5 1004 0 2 Image Chart
1990 8 12 18 15.0 148.0 1002 0 2 Image Chart
1990 8 13 00 16.3 147.8 1002 0 2 Image Chart
1990 8 13 06 17.7 147.4 998 0 2 Image Chart
1990 8 13 12 18.8 146.4 998 0 2 Image Chart
1990 8 13 18 19.0 144.8 998 0 2 Image Chart
1990 8 14 00 18.7 143.1 996 35 3 Image Chart
1990 8 14 06 18.5 141.1 992 40 3 Image Chart
1990 8 14 12 18.5 139.2 992 40 3 Image Chart
1990 8 14 18 18.7 137.2 990 45 3 Image Chart
1990 8 15 00 18.1 135.7 985 50 4 Image Chart
1990 8 15 06 18.2 134.9 985 50 4 Image Chart
1990 8 15 12 19.0 134.0 985 50 4 Image Chart
1990 8 15 18 19.2 132.6 980 55 4 Image Chart
1990 8 16 00 19.6 131.8 980 55 4 Image Chart
1990 8 16 06 19.7 131.0 980 55 4 Image Chart
1990 8 16 12 20.1 129.5 975 60 4 Image Chart
1990 8 16 18 20.4 127.9 975 60 4 Image Chart
1990 8 17 00 20.5 126.9 975 60 4 Image Chart
1990 8 17 06 20.6 126.4 975 60 4 Image Chart
1990 8 17 12 20.7 125.5 970 65 5 Image Chart
1990 8 17 18 21.3 125.0 965 70 5 Image Chart
1990 8 18 00 21.7 124.7 965 70 5 Image Chart
1990 8 18 06 22.2 124.5 960 70 5 Image Chart
1990 8 18 12 22.9 124.1 960 70 5 Image Chart
1990 8 18 18 24.0 123.7 950 80 5 Image Chart
1990 8 19 00 24.7 122.6 950 80 5 Image Chart
1990 8 19 06 24.7 121.0 955 75 5 Image Chart
1990 8 19 12 24.9 121.3 970 65 5 Image Chart
1990 8 19 18 25.3 120.5 975 55 4 Image Chart
1990 8 20 00 25.6 119.7 980 50 4 Image Chart
1990 8 20 06 25.4 118.8 984 45 3 Image Chart
1990 8 20 12 25.2 118.3 984 45 3 Image Chart
1990 8 20 18 25.0 118.1 986 40 3 Image Chart
1990 8 21 00 25.0 118.5 986 40 3 Image Chart
1990 8 21 06 25.0 118.5 986 40 3 Image Chart
1990 8 21 12 25.0 118.5 986 40 3 Image Chart
1990 8 21 18 24.2 118.0 988 35 3 Image Chart
1990 8 22 00 24.3 118.5 988 35 3 Image Chart
1990 8 22 06 24.8 118.5 988 35 3 Image Chart
1990 8 22 12 25.0 118.0 994 0 2 Image Chart
1990 8 22 18 24.0 117.0 996 0 2 Image Chart
1990 8 23 00 25.0 117.0 1000 0 2 Image Chart
1990 8 23 06 26.0 117.0 1000 0 2 Image Chart
Japan Meteorological Agency Best Track Data | Correction Date : 1992-10-21
< Typhoon 199011 1990 Season Typhoon 199013 >

Help